Slocum, Rhode Island
Current Conditions -  °F | °C
As of 9:53 PM on Tuesday 21 Oct 2014 (Local Time) from KUUU Reporting Station
Overcast Overcast  
Wind Chill: 60°   Ceiling: 500
Heat Index: 60°   Visibility: 10mi
Dew Point: 56°   Wind: 7mph
Humidity: 86%   Direction: 10°N
Pressure: 29.94"   Gusts: NA
Location:  41.53°N, 71.52°W
Report Text: KUUU 220153Z AUTO 01006KT 10SM OVC005 16/13 A2994 RMK AO2 SLP136 T01560133
Loading
Personal Weather Stations






























Interactive Weather Map
Tropical Storm Tracking
New forecast layout! Learn more

10-Day Weather Forecast

Advertisements
Track Severe Weather on mobile